Time;durP1;ratioP1;P1;durP2;ratioP2;P2;SDS_P1;SDS_P2;PMS_P1;PMS_P2;Temp;Humidity;BMP_temperature;BMP_pressure;BME280_temperature;BME280_humidity;BME280_pressure;Samples;Min_cycle;Max_cycle;Signal;HPM_P1;HPM_P2
2024/04/12 00:01:04;;;;;;;4.53;2.95;;;;;;;9.75;68.03;99787.81;5337659;26;20012;-75
2024/04/12 00:03:31;;;;;;;6.13;3.20;;;;;;;9.74;67.97;99795.03;5345903;26;20001;-74
2024/04/12 00:05:57;;;;;;;4.95;2.80;;;;;;;9.72;68.23;99785.50;5366487;26;20351;-74
2024/04/12 00:08:29;;;;;;;7.38;3.30;;;;;;;9.80;67.98;99793.41;5315562;26;20015;-74
2024/04/12 00:11:02;;;;;;;5.90;3.33;;;;;;;9.66;68.44;99781.75;5329323;26;20000;-74
2024/04/12 00:13:31;;;;;;;8.75;3.20;;;;;;;9.52;68.47;99753.13;5260384;26;20333;-74
2024/04/12 00:15:57;;;;;;;5.47;2.90;;;;;;;9.71;68.26;99784.66;5332586;26;20023;-74
2024/04/12 00:18:26;;;;;;;6.22;2.50;;;;;;;9.64;67.88;99789.19;5307675;26;20000;-73
2024/04/12 00:20:58;;;;;;;5.38;2.90;;;;;;;9.64;68.29;99797.25;5262179;26;20010;-73
2024/04/12 00:23:33;;;;;;;6.47;3.20;;;;;;;9.60;68.02;99777.16;5337614;26;20015;-73
2024/04/12 00:26:01;;;;;;;4.78;3.00;;;;;;;9.61;68.10;99778.81;5320685;26;20005;-74
2024/04/12 00:28:30;;;;;;;4.13;2.60;;;;;;;9.63;68.10;99782.16;5326439;26;20000;-73
2024/04/12 00:31:02;;;;;;;5.03;2.88;;;;;;;9.60;68.25;99787.94;5303766;26;20016;-73
2024/04/12 00:33:33;;;;;;;4.40;2.75;;;;;;;9.55;68.32;99776.94;5355349;26;20008;-74
2024/04/12 00:36:12;;;;;;;6.43;3.08;;;;;;;9.53;68.26;99781.69;5331152;26;20001;-73
2024/04/12 00:38:41;;;;;;;5.60;2.80;;;;;;;9.52;68.63;99787.28;5322977;26;20001;-74
2024/04/12 00:41:14;;;;;;;3.75;2.53;;;;;;;9.46;68.49;99780.81;5342850;26;20005;-75
2024/04/12 00:43:48;;;;;;;4.72;2.83;;;;;;;9.39;68.45;99774.56;5302413;26;20001;-74
2024/04/12 00:46:26;;;;;;;4.85;2.78;;;;;;;9.31;68.34;99769.34;5329595;26;20371;-75
2024/04/12 00:48:53;;;;;;;5.95;2.60;;;;;;;9.37;68.63;99781.19;5320026;26;20479;-74
2024/04/12 00:51:21;;;;;;;7.47;2.90;;;;;;;9.28;68.73;99769.75;5341994;26;20325;-74
2024/04/12 00:53:48;;;;;;;4.78;2.80;;;;;;;9.33;68.67;99778.06;5318136;26;20032;-74
2024/04/12 00:56:15;;;;;;;5.07;2.83;;;;;;;9.32;68.81;99779.06;5342425;26;20008;-73
2024/04/12 00:58:43;;;;;;;4.20;2.47;;;;;;;9.17;68.84;99751.47;5345390;26;20015;-74
2024/04/12 01:01:16;;;;;;;3.80;2.60;;;;;;;9.17;69.10;99761.41;5338159;26;20004;-74
2024/04/12 01:03:47;;;;;;;4.70;2.83;;;;;;;9.10;69.36;99756.00;5312884;26;20333;-74
2024/04/12 01:06:21;;;;;;;5.60;2.92;;;;;;;9.18;69.54;99776.50;5346945;26;20039;-74
2024/04/12 01:08:46;;;;;;;6.25;2.65;;;;;;;9.14;69.27;99769.88;5315718;26;20020;-74
2024/04/12 01:11:13;;;;;;;7.43;3.25;;;;;;;9.10;69.19;99776.66;5319942;26;20005;-74
2024/04/12 01:13:41;;;;;;;3.63;2.88;;;;;;;9.10;69.11;99769.44;5285750;26;20083;-74
2024/04/12 01:16:07;;;;;;;5.97;3.05;;;;;;;9.11;69.17;99771.09;5345036;26;20005;-75
2024/04/12 01:18:32;;;;;;;5.00;2.95;;;;;;;8.99;69.31;99751.16;5305068;26;19994;-77
2024/04/12 01:21:10;;;;;;;3.67;2.60;;;;;;;9.02;69.38;99750.75;5332607;26;20493;-73
2024/04/12 01:23:44;;;;;;;4.88;2.88;;;;;;;8.90;69.16;99744.25;5299822;26;20005;-74
2024/04/12 01:26:15;;;;;;;6.88;3.25;;;;;;;8.91;69.08;99754.00;5301978;26;20073;-73
2024/04/12 01:28:44;;;;;;;4.80;2.53;;;;;;;8.91;69.68;99759.38;5269456;26;20038;-73
2024/04/12 01:31:15;;;;;;;4.40;2.97;;;;;;;8.79;69.87;99739.44;5326197;26;20001;-74
2024/04/12 01:33:50;;;;;;;3.65;2.70;;;;;;;8.86;69.54;99769.88;5326773;26;20009;-74
2024/04/12 01:36:21;;;;;;;5.85;3.33;;;;;;;8.69;69.96;99749.69;5320992;26;20053;-75
2024/04/12 01:38:53;;;;;;;6.60;3.40;;;;;;;8.71;70.05;99742.25;5298081;26;20105;-75
2024/04/12 01:41:25;;;;;;;5.10;3.30;;;;;;;8.60;69.97;99724.00;5324629;26;20167;-75
2024/04/12 01:43:53;;;;;;;7.13;3.15;;;;;;;8.64;69.67;99738.69;5329054;26;20006;-75
2024/04/12 01:46:27;;;;;;;4.63;3.20;;;;;;;8.74;70.23;99755.31;5351021;26;20016;-76
2024/04/12 01:48:54;;;;;;;4.47;2.92;;;;;;;8.62;70.29;99740.72;5346179;26;20395;-75
2024/04/12 01:51:23;;;;;;;5.50;3.03;;;;;;;8.62;70.17;99754.16;5314861;26;20363;-74
2024/04/12 01:53:54;;;;;;;5.22;2.80;;;;;;;8.52;70.70;99749.13;5319050;26;20015;-74
2024/04/12 01:56:21;;;;;;;4.13;2.95;;;;;;;8.61;71.06;99763.25;5341131;26;20001;-74
2024/04/12 01:58:48;;;;;;;5.10;3.05;;;;;;;8.51;70.62;99747.47;5301369;26;20463;-74
2024/04/12 02:01:14;;;;;;;7.50;2.97;;;;;;;8.56;70.55;99758.47;5320502;26;20736;-74
2024/04/12 02:03:40;;;;;;;4.40;3.05;;;;;;;8.57;70.82;99762.78;5331615;26;20004;-74
2024/04/12 02:06:05;;;;;;;4.78;3.20;;;;;;;8.49;70.84;99744.16;5312686;26;20012;-74
2024/04/12 02:08:32;;;;;;;5.38;2.97;;;;;;;8.61;70.97;99757.88;5317401;26;20464;-75
2024/04/12 02:10:59;;;;;;;6.82;3.45;;;;;;;8.56;70.95;99750.41;5316332;26;20453;-73
2024/04/12 02:13:35;;;;;;;7.28;3.42;;;;;;;8.50;70.93;99750.31;5325683;26;20008;-74
2024/04/12 02:16:01;;;;;;;7.28;3.53;;;;;;;8.45;70.92;99747.41;5306956;26;20355;-73
2024/04/12 02:18:32;;;;;;;8.25;3.97;;;;;;;8.48;70.80;99757.75;5333318;26;20015;-74
2024/04/12 02:21:04;;;;;;;6.65;3.45;;;;;;;8.50;70.78;99755.69;5330702;26;20012;-74
2024/04/12 02:23:33;;;;;;;8.68;4.10;;;;;;;8.53;70.81;99764.22;5301758;26;20487;-74
2024/04/12 02:25:59;;;;;;;5.43;3.95;;;;;;;8.55;70.90;99764.00;5339850;26;20015;-74
2024/04/12 02:28:26;;;;;;;6.43;3.88;;;;;;;8.49;71.19;99759.44;5295459;26;20355;-75
2024/04/12 02:30:57;;;;;;;5.93;4.28;;;;;;;8.60;71.11;99777.69;5336990;26;20078;-74
2024/04/12 02:33:29;;;;;;;4.93;3.60;;;;;;;8.57;71.14;99772.69;5283545;26;20015;-74
2024/04/12 02:36:11;;;;;;;10.30;4.40;;;;;;;8.45;71.37;99774.25;5340187;26;20832;-74
2024/04/12 02:38:41;;;;;;;7.78;4.00;;;;;;;8.40;71.44;99766.78;5336525;26;20016;-74
2024/04/12 02:41:13;;;;;;;5.95;4.63;;;;;;;8.48;71.52;99779.22;5331525;26;20011;-75
2024/04/12 02:43:40;;;;;;;7.00;3.90;;;;;;;8.35;71.72;99770.03;5324844;26;20011;-75
2024/04/12 02:46:06;;;;;;;8.77;4.45;;;;;;;8.43;71.54;99782.50;5330863;26;20001;-74
2024/04/12 02:48:33;;;;;;;7.35;4.93;;;;;;;8.40;71.58;99782.91;5320853;26;20000;-74
2024/04/12 02:51:03;;;;;;;7.35;4.15;;;;;;;8.33;72.06;99773.94;5343463;26;20011;-75
2024/04/12 02:53:29;;;;;;;5.90;4.07;;;;;;;8.34;72.04;99776.44;5288130;26;20058;-74
2024/04/12 02:56:00;;;;;;;5.88;4.00;;;;;;;8.28;72.02;99769.13;5315845;26;20004;-74
2024/04/12 02:58:39;;;;;;;5.25;3.67;;;;;;;8.36;71.80;99784.28;5311846;26;20044;-74
2024/04/12 03:01:25;;;;;;;6.55;4.10;;;;;;;8.32;71.75;99791.91;5346014;26;20120;-74
2024/04/12 03:03:56;;;;;;;4.50;4.07;;;;;;;8.32;71.81;99788.38;5313396;21;20016;-75
2024/04/12 03:06:23;;;;;;;6.32;4.47;;;;;;;8.33;72.13;99792.72;5299654;26;20009;-74
2024/04/12 03:08:50;;;;;;;6.32;4.10;;;;;;;8.19;72.25;99770.25;5273648;27;20024;-74
2024/04/12 03:11:21;;;;;;;6.75;3.90;;;;;;;8.30;72.16;99782.38;5280134;27;20018;-74
2024/04/12 03:14:09;;;;;;;8.40;4.28;;;;;;;8.16;71.90;99781.38;5302101;27;20392;-74
2024/04/12 03:16:40;;;;;;;6.60;4.93;;;;;;;8.17;72.10;99780.34;5271681;27;20010;-75
2024/04/12 03:19:07;;;;;;;5.95;4.70;;;;;;;8.18;72.06;99787.38;5290124;27;20002;-75
2024/04/12 03:21:34;;;;;;;7.47;4.63;;;;;;;8.26;72.26;99798.00;5285130;27;20025;-75
2024/04/12 03:24:01;;;;;;;8.40;4.45;;;;;;;8.18;72.32;99776.66;5281538;27;20369;-74
2024/04/12 03:26:27;;;;;;;6.20;4.50;;;;;;;8.22;73.04;99801.22;5311897;27;19997;-75
2024/04/12 03:28:58;;;;;;;5.70;4.13;;;;;;;8.23;72.45;99803.75;5264634;27;20013;-74
2024/04/12 03:31:27;;;;;;;6.68;4.60;;;;;;;8.16;72.74;99781.38;5288523;27;20009;-75
2024/04/12 03:33:56;;;;;;;8.98;4.43;;;;;;;8.27;72.68;99788.94;5252585;27;20007;-74
2024/04/12 03:36:26;;;;;;;6.40;4.40;;;;;;;8.29;72.73;99792.28;5323978;26;20396;-75
2024/04/12 03:39:24;;;;;;;9.40;4.65;;;;;;;8.27;72.85;99790.78;5281613;27;20016;-74
2024/04/12 03:42:07;;;;;;;7.35;4.45;;;;;;;8.25;72.80;99787.44;5295788;27;20013;-74
2024/04/12 03:44:34;;;;;;;7.53;4.93;;;;;;;8.10;72.98;99771.38;5300009;27;20009;-74
2024/04/12 03:47:07;;;;;;;9.57;4.53;;;;;;;8.16;73.16;99773.31;5295301;27;20009;-74
2024/04/12 03:49:36;;;;;;;7.13;4.60;;;;;;;8.25;73.35;99780.22;5290836;27;20445;-74
2024/04/12 03:52:04;;;;;;;7.50;4.70;;;;;;;8.18;73.65;99759.72;5280696;27;20002;-75
2024/04/12 03:54:30;;;;;;;7.65;5.35;;;;;;;8.25;73.36;99772.19;5248322;27;19999;-74
2024/04/12 03:56:57;;;;;;;9.70;6.68;;;;;;;8.17;73.50;99760.72;5281433;27;20016;-75
2024/04/12 03:59:29;;;;;;;8.50;5.65;;;;;;;8.08;73.54;99756.50;5281364;27;19997;-75
2024/04/12 04:01:56;;;;;;;7.85;5.65;;;;;;;7.98;73.78;99770.22;5309961;27;20029;-75
2024/04/12 04:04:25;;;;;;;11.50;5.95;;;;;;;7.84;73.63;99776.44;5267412;27;20034;-76
2024/04/12 04:06:55;;;;;;;7.38;6.05;;;;;;;7.80;73.96;99791.25;5311488;26;20560;-75
2024/04/12 04:09:21;;;;;;;8.77;5.97;;;;;;;7.68;73.87;99787.38;5253365;27;20008;-75
2024/04/12 04:11:53;;;;;;;9.27;5.95;;;;;;;7.68;74.15;99783.88;5294280;27;20005;-76
2024/04/12 04:14:25;;;;;;;7.95;6.28;;;;;;;7.80;74.47;99801.97;5276630;27;20001;-75
2024/04/12 04:16:51;;;;;;;8.70;6.25;;;;;;;7.75;74.51;99777.56;5254864;27;20002;-75
2024/04/12 04:19:39;;;;;;;9.95;6.43;;;;;;;7.90;74.72;99802.53;5244441;27;20147;-76
2024/04/12 04:22:05;;;;;;;8.43;6.50;;;;;;;7.89;75.14;99794.69;5282883;27;20005;-75
2024/04/12 04:24:34;;;;;;;10.40;6.00;;;;;;;7.96;74.70;99801.75;5311033;27;20016;-76
2024/04/12 04:27:08;;;;;;;7.35;5.55;;;;;;;7.97;75.05;99808.81;5257433;27;20144;-76
2024/04/12 04:29:35;;;;;;;6.40;5.55;;;;;;;7.91;75.27;99789.94;5225975;27;20072;-74
2024/04/12 04:32:00;;;;;;;8.43;5.78;;;;;;;7.97;75.04;99792.72;5279542;27;20012;-74
2024/04/12 04:34:26;;;;;;;6.90;5.20;;;;;;;8.05;75.11;99800.63;5311064;27;20022;-74
2024/04/12 04:36:56;;;;;;;7.22;5.45;;;;;;;8.07;75.46;99793.25;5289377;27;20001;-75
2024/04/12 04:39:23;;;;;;;7.47;5.50;;;;;;;8.19;75.25;99813.16;5248046;27;20038;-75
2024/04/12 04:41:58;;;;;;;6.75;5.45;;;;;;;8.24;75.38;99797.34;5254765;27;20001;-75
2024/04/12 04:44:24;;;;;;;7.30;5.38;;;;;;;8.24;75.26;99802.72;5281962;27;20068;-75
2024/04/12 04:46:50;;;;;;;5.72;5.15;;;;;;;8.15;75.41;99781.53;5282012;27;20457;-76
2024/04/12 04:49:23;;;;;;;8.00;5.20;;;;;;;8.17;75.53;99793.75;5265440;27;20002;-76
2024/04/12 04:51:48;;;;;;;9.60;4.82;;;;;;;8.25;75.57;99799.00;5252144;27;20001;-76
2024/04/12 04:54:15;;;;;;;5.35;4.47;;;;;;;8.26;75.95;99797.19;5265909;27;20104;-77
2024/04/12 04:56:42;;;;;;;5.85;4.47;;;;;;;8.28;75.76;99795.97;5252426;27;20020;-76
2024/04/12 04:59:08;;;;;;;8.40;5.50;;;;;;;8.15;75.69;99770.81;5280515;27;20002;-75
2024/04/12 05:01:34;;;;;;;12.30;5.20;;;;;;;8.17;75.58;99777.66;5279056;27;20001;-75
2024/04/12 05:04:00;;;;;;;8.73;5.80;;;;;;;8.16;76.01;99776.00;5252056;27;20473;-75
2024/04/12 05:06:27;;;;;;;8.60;6.82;;;;;;;8.18;75.63;99784.69;5311119;26;20420;-75
2024/04/12 05:08:56;;;;;;;8.25;6.50;;;;;;;8.01;75.50;99777.88;5280553;27;20010;-75
2024/04/12 05:11:24;;;;;;;8.80;7.05;;;;;;;8.08;75.50;99794.06;5274513;27;20002;-75
2024/04/12 05:13:55;;;;;;;9.27;7.43;;;;;;;8.04;75.52;99803.50;5286572;27;20053;-75
2024/04/12 05:16:21;;;;;;;7.43;6.40;;;;;;;7.85;75.80;99793.38;5285130;26;20013;-75
2024/04/12 05:18:48;;;;;;;8.90;7.60;;;;;;;7.74;75.47;99765.19;5280135;27;20001;-75
2024/04/12 05:21:16;;;;;;;11.68;7.40;;;;;;;7.87;75.52;99775.22;5279399;27;20009;-76
2024/04/12 05:23:42;;;;;;;184.32;128.13;;;;;;;7.93;75.30;99769.13;5279758;27;20484;-76
2024/04/12 05:26:09;;;;;;;190.15;134.98;;;;;;;8.10;75.39;99792.84;5251883;27;20126;-76
2024/04/12 05:28:35;;;;;;;230.50;165.00;;;;;;;8.18;75.46;99787.38;5277541;27;20461;-75
2024/04/12 05:31:01;;;;;;;121.75;83.75;;;;;;;7.95;75.30;99735.75;5311698;26;20009;-73
2024/04/12 05:33:29;;;;;;;101.75;71.40;;;;;;;8.27;75.47;99783.59;5308816;27;20010;-75
2024/04/12 05:35:55;;;;;;;162.43;117.22;;;;;;;8.29;75.18;99781.53;5313060;27;20018;-76
2024/04/12 05:38:21;;;;;;;63.03;43.88;;;;;;;8.32;75.50;99786.53;5283080;27;20009;-75
2024/04/12 05:40:52;;;;;;;12.23;9.35;;;;;;;8.21;75.34;99786.16;5262765;26;20445;-75
2024/04/12 05:43:18;;;;;;;7.75;6.70;;;;;;;8.14;75.78;99770.00;5285012;27;19997;-75
2024/04/12 05:45:47;;;;;;;6.22;5.43;;;;;;;8.26;75.36;99781.91;5312937;27;19998;-75
2024/04/12 05:48:13;;;;;;;6.70;5.30;;;;;;;8.10;75.52;99763.34;5283821;27;20009;-75
2024/04/12 05:50:39;;;;;;;9.57;5.50;;;;;;;8.24;75.59;99789.28;5251953;27;20050;-75
2024/04/12 05:53:11;;;;;;;8.20;5.57;;;;;;;8.24;76.00;99783.09;5276090;27;20033;-74
2024/04/12 05:55:52;;;;;;;8.98;5.70;;;;;;;8.29;75.30;99786.91;5312839;27;20472;-74
2024/04/12 05:58:18;;;;;;;8.05;6.03;;;;;;;8.50;75.40;99798.66;5312822;26;20008;-75
2024/04/12 06:00:47;;;;;;;6.75;5.63;;;;;;;8.63;75.28;99793.44;5252413;27;19997;-75
2024/04/12 06:03:16;;;;;;;9.85;6.82;;;;;;;8.70;74.92;99783.59;5281636;26;20002;-74
2024/04/12 06:05:55;;;;;;;12.43;8.52;;;;;;;8.80;75.05;99774.16;5290277;27;20005;-75
2024/04/12 06:08:22;;;;;;;10.70;7.38;;;;;;;8.91;75.12;99770.13;5253625;27;20012;-75
2024/04/12 06:10:50;;;;;;;8.75;7.35;;;;;;;9.04;74.31;99767.50;5310177;27;20037;-75
2024/04/12 06:13:17;;;;;;;9.98;7.85;;;;;;;9.12;74.58;99767.38;5282908;27;20014;-75
2024/04/12 06:15:43;;;;;;;10.02;7.95;;;;;;;9.31;74.21;99793.53;5312432;27;20350;-75
2024/04/12 06:18:09;;;;;;;12.07;8.45;;;;;;;9.51;74.17;99805.25;5254513;27;20002;-75
2024/04/12 06:20:35;;;;;;;9.32;6.18;;;;;;;9.47;73.89;99779.81;5281457;27;20005;-75
2024/04/12 06:23:06;;;;;;;7.38;6.03;;;;;;;9.56;73.23;99792.06;5282619;27;20037;-75
2024/04/12 06:25:58;;;;;;;11.48;7.70;;;;;;;9.69;73.48;99808.25;5268437;27;20079;-76
2024/04/12 06:28:24;;;;;;;11.93;7.90;;;;;;;9.71;73.65;99781.13;5299423;27;20045;-75
2024/04/12 06:30:52;;;;;;;10.70;6.93;;;;;;;9.83;73.85;99787.63;5280857;27;20026;-76
2024/04/12 06:33:22;;;;;;;9.55;7.28;;;;;;;9.86;73.88;99797.16;5312201;27;20326;-75
2024/04/12 06:35:49;;;;;;;10.00;6.68;;;;;;;9.78;73.93;99794.66;5296608;27;20076;-75
2024/04/12 06:38:21;;;;;;;8.90;6.28;;;;;;;9.82;74.80;99796.75;5253993;26;20070;-76
2024/04/12 06:40:55;;;;;;;10.70;5.90;;;;;;;9.85;73.70;99812.47;5310148;27;20025;-75
2024/04/12 06:43:21;;;;;;;9.27;6.28;;;;;;;9.75;74.22;99807.44;5293253;27;20001;-75
2024/04/12 06:46:11;;;;;;;10.63;6.30;;;;;;;9.77;73.87;99823.41;5281650;27;20041;-76
2024/04/12 06:48:40;;;;;;;9.85;5.88;;;;;;;9.52;74.74;99817.66;5277575;27;20022;-75
2024/04/12 06:51:11;;;;;;;9.98;7.65;;;;;;;9.62;74.15;99828.06;5280861;27;20002;-76
2024/04/12 06:53:48;;;;;;;11.00;6.07;;;;;;;9.71;74.16;99808.88;5282955;27;20006;-76
2024/04/12 06:56:17;;;;;;;8.43;6.45;;;;;;;9.81;73.29;99810.38;5255833;27;20013;-75
2024/04/12 06:58:46;;;;;;;10.60;6.22;;;;;;;9.90;73.64;99825.31;5296835;27;20014;-75
2024/04/12 07:01:11;;;;;;;8.20;6.30;;;;;;;9.75;74.04;99818.19;5281100;27;20030;-75
2024/04/12 07:03:37;;;;;;;10.00;6.65;;;;;;;10.01;73.32;99827.47;5281349;27;20017;-75
2024/04/12 07:06:07;;;;;;;10.10;6.47;;;;;;;10.07;73.74;99827.47;5253582;27;20491;-75
2024/04/12 07:08:33;;;;;;;14.52;6.03;;;;;;;10.18;73.45;99823.38;5300202;27;20001;-75
2024/04/12 07:11:02;;;;;;;10.90;6.55;;;;;;;10.31;73.13;99812.69;5254662;27;20014;-75
2024/04/12 07:13:33;;;;;;;12.85;6.60;;;;;;;10.52;72.83;99826.00;5243589;27;20005;-75
2024/04/12 07:16:01;;;;;;;8.65;6.13;;;;;;;10.57;72.54;99822.69;5254314;27;20002;-76
2024/04/12 07:18:28;;;;;;;8.73;6.00;;;;;;;10.60;72.31;99806.94;5311870;27;20333;-76
2024/04/12 07:21:14;;;;;;;10.80;5.28;;;;;;;10.69;72.19;99797.59;5282728;26;20004;-75
2024/04/12 07:23:42;;;;;;;7.25;5.18;;;;;;;11.06;71.61;99828.53;5281270;27;20010;-75
2024/04/12 07:26:14;;;;;;;9.23;5.32;;;;;;;11.27;71.27;99822.09;5282587;27;20009;-75
2024/04/12 07:28:40;;;;;;;9.95;5.55;;;;;;;11.41;70.85;99819.16;5253291;27;20509;-75
2024/04/12 07:31:06;;;;;;;7.05;4.97;;;;;;;11.61;70.19;99835.31;5252041;27;20013;-75
2024/04/12 07:33:33;;;;;;;6.78;5.00;;;;;;;11.80;70.01;99826.38;5323644;26;20126;-75
2024/04/12 07:35:59;;;;;;;7.07;5.18;;;;;;;12.00;69.23;99827.13;5253277;27;20006;-75
2024/04/12 07:38:25;;;;;;;7.80;5.45;;;;;;;12.09;68.93;99809.66;5267113;27;20006;-75
2024/04/12 07:40:53;;;;;;;7.10;4.90;;;;;;;12.26;67.80;99796.47;5285901;27;20002;-75
2024/04/12 07:43:18;;;;;;;9.98;5.32;;;;;;;12.40;67.75;99804.31;5259172;27;20001;-76
2024/04/12 07:45:44;;;;;;;9.68;4.95;;;;;;;12.64;67.72;99815.38;5282479;27;20523;-76
2024/04/12 07:48:22;;;;;;;8.70;4.90;;;;;;;12.79;67.36;99810.50;5311437;27;20774;-72
2024/04/12 07:50:55;;;;;;;8.55;5.07;;;;;;;13.03;66.24;99817.78;5275501;27;20002;-76
2024/04/12 07:53:23;;;;;;;7.18;4.57;;;;;;;13.14;65.58;99808.97;5281708;27;19998;-75
2024/04/12 07:55:58;;;;;;;10.82;4.93;;;;;;;13.25;64.29;99819.09;5286335;27;20477;-76
2024/04/12 07:58:34;;;;;;;7.38;4.53;;;;;;;13.40;63.96;99824.97;5283190;27;20005;-75
2024/04/12 08:01:09;;;;;;;6.20;4.30;;;;;;;13.46;64.26;99813.28;5279527;27;20002;-75
2024/04/12 08:03:50;;;;;;;7.50;4.43;;;;;;;13.67;63.69;99815.56;5311044;27;20013;-76
2024/04/12 08:06:19;;;;;;;9.45;3.90;;;;;;;13.83;62.79;99806.00;5295256;27;20461;-75
2024/04/12 08:08:46;;;;;;;5.72;4.20;;;;;;;14.03;62.83;99797.63;5297475;27;20017;-76
2024/04/12 08:11:41;;;;;;;7.72;4.10;;;;;;;14.13;62.38;99800.63;5252312;27;20018;-75
2024/04/12 08:14:08;;;;;;;11.30;4.53;;;;;;;14.17;62.18;99804.53;5287062;27;20025;-76
2024/04/12 08:16:37;;;;;;;5.43;4.53;;;;;;;14.33;61.39;99803.94;5265779;27;20001;-75
2024/04/12 08:19:13;;;;;;;7.10;4.22;;;;;;;14.44;61.75;99814.03;5288651;27;20001;-76
2024/04/12 08:21:42;;;;;;;;;;;;;;;14.47;60.95;99806.25;5264512;27;20016;-76
2024/04/12 08:24:10;;;;;;;9.80;4.40;;;;;;;14.72;61.22;99803.41;5283428;26;19933;-75
2024/04/12 08:26:45;;;;;;;8.45;4.22;;;;;;;14.83;59.35;99799.88;5286620;27;20017;-77
2024/04/12 08:29:23;;;;;;;9.32;3.95;;;;;;;14.91;58.61;99798.72;5281385;26;20016;-75
2024/04/12 08:32:13;;;;;;;9.82;4.45;;;;;;;15.05;58.14;99798.25;5288097;27;20002;-76
2024/04/12 08:34:43;;;;;;;8.02;4.30;;;;;;;15.21;57.96;99797.59;5277212;27;20005;-76
2024/04/12 08:37:16;;;;;;;6.57;3.55;;;;;;;15.29;56.96;99793.66;5310583;27;20076;-76
2024/04/12 08:39:44;;;;;;;8.55;4.22;;;;;;;15.29;57.08;99785.53;5281026;27;20013;-76
2024/04/12 08:42:15;;;;;;;7.38;3.85;;;;;;;15.30;56.62;99783.66;5279071;27;20034;-75
2024/04/12 08:44:44;;;;;;;9.57;4.32;;;;;;;15.48;55.06;99808.00;5284967;27;20037;-76
2024/04/12 08:47:29;;;;;;;7.13;3.10;;;;;;;15.46;53.41;99804.69;5256275;27;20101;-76
2024/04/12 08:50:07;;;;;;;10.00;3.30;;;;;;;15.63;53.44;99797.50;5280800;27;20689;-76
2024/04/12 08:52:47;;;;;;;9.07;3.00;;;;;;;15.76;51.37;99805.38;5281740;27;20002;-76
2024/04/12 08:55:15;;;;;;;7.30;2.83;;;;;;;15.93;51.23;99805.47;5322665;26;20009;-75
2024/04/12 08:57:44;;;;;;;5.22;2.50;;;;;;;16.03;51.93;99795.66;5246330;27;20038;-75
2024/04/12 09:00:18;;;;;;;8.15;2.45;;;;;;;16.03;51.49;99781.22;5280678;27;20527;-75
2024/04/12 09:02:51;;;;;;;5.00;2.50;;;;;;;16.19;50.19;99792.16;5247655;27;19998;-76
2024/04/12 09:05:22;;;;;;;7.38;2.65;;;;;;;16.29;47.96;99802.44;5314387;26;20002;-75
2024/04/12 09:07:50;;;;;;;9.07;2.70;;;;;;;16.27;49.76;99783.63;5370884;21;20082;-72
2024/04/12 09:10:17;;;;;;;5.53;2.55;;;;;;;16.50;48.12;99791.66;5339416;26;20001;-72
2024/04/12 09:12:49;;;;;;;4.90;2.47;;;;;;;16.69;48.35;99797.75;5340890;26;19993;-73
2024/04/12 09:15:23;;;;;;;6.68;2.67;;;;;;;16.70;48.98;99780.38;5349125;26;20348;-72
2024/04/12 09:18:01;;;;;;;3.90;2.38;;;;;;;17.01;48.06;99793.41;5317744;26;20013;-72
2024/04/12 09:20:30;;;;;;;8.93;2.45;;;;;;;17.16;46.90;99790.13;5288147;26;20501;-72
2024/04/12 09:23:16;;;;;;;5.43;2.55;;;;;;;17.10;47.75;99789.25;5338097;26;20051;-72
2024/04/12 09:25:54;;;;;;;4.82;1.92;;;;;;;17.17;47.22;99791.78;5297879;26;20020;-72
2024/04/12 09:28:22;;;;;;;6.43;2.53;;;;;;;17.15;46.75;99774.88;5315627;26;19997;-72
2024/04/12 09:33:32;;;;;;;7.10;2.13;;;;;;;17.34;45.62;99781.69;5306828;26;20001;-71
2024/04/12 09:36:06;;;;;;;5.15;2.30;;;;;;;17.25;46.92;99766.84;5313708;26;20004;-72
2024/04/12 09:38:39;;;;;;;8.10;2.75;;;;;;;17.36;46.21;99779.56;5307849;27;20006;-72
2024/04/12 09:41:27;;;;;;;8.05;2.17;;;;;;;17.34;44.19;99775.44;5311088;26;20009;-73
2024/04/12 09:43:54;;;;;;;6.97;2.13;;;;;;;17.48;45.89;99772.09;5293383;27;20001;-73
2024/04/12 09:46:36;;;;;;;5.78;2.30;;;;;;;17.56;45.63;99773.59;5293932;26;20014;-73
2024/04/12 10:38:57;;;;;;;7.83;3.40;;;;;;;18.75;44.29;99712.56;5312900;26;20005;-73
2024/04/12 10:41:26;;;;;;;6.13;3.83;;;;;;;18.72;43.66;99729.44;5283098;26;20079;-72
2024/04/12 10:43:55;;;;;;;8.60;4.00;;;;;;;19.02;44.29;99735.16;5300886;26;20005;-72
2024/04/12 10:46:20;;;;;;;8.75;3.53;;;;;;;19.29;45.93;99724.16;5345248;26;20070;-72
2024/04/12 10:48:45;;;;;;;7.63;3.47;;;;;;;19.50;43.64;99736.06;5340499;26;20005;-72
2024/04/12 10:51:16;;;;;;;7.88;4.00;;;;;;;19.47;42.44;99722.91;5297509;27;20078;-72
2024/04/12 10:53:42;;;;;;;7.55;3.75;;;;;;;19.40;41.37;99725.06;5305158;27;20636;-72
2024/04/12 10:56:11;;;;;;;7.70;3.88;;;;;;;19.53;42.77;99730.06;5310191;26;20020;-72
2024/04/12 10:58:52;;;;;;;8.82;3.60;;;;;;;19.44;42.20;99726.19;5313575;26;20349;-72
2024/04/12 11:01:19;;;;;;;9.80;3.58;;;;;;;19.46;42.20;99719.38;5310766;26;20071;-72
2024/04/12 11:03:56;;;;;;;6.03;3.28;;;;;;;19.50;42.07;99709.56;5316477;26;20086;-73
2024/04/12 11:06:31;;;;;;;6.80;3.75;;;;;;;19.50;41.51;99684.97;5282947;26;20001;-72
2024/04/12 11:09:06;;;;;;;8.32;3.90;;;;;;;19.46;43.28;99680.28;5288232;26;20005;-73
2024/04/12 11:11:33;;;;;;;8.32;3.95;;;;;;;19.61;44.91;99683.91;5295447;27;20458;-73
2024/04/12 11:13:59;;;;;;;4.88;3.40;;;;;;;19.78;42.17;99675.50;5261792;27;20006;-73
2024/04/12 11:33:04;;;;;;;7.53;3.20;;;;;;;20.88;42.73;99654.88;5300422;26;20013;-72
2024/04/12 11:35:30;;;;;;;6.80;3.45;;;;;;;20.82;39.99;99656.00;5341272;26;20012;-72
2024/04/12 11:37:56;;;;;;;10.13;3.22;;;;;;;20.93;40.48;99655.72;5315697;26;20001;-72
2024/04/12 11:40:24;;;;;;;7.28;3.08;;;;;;;20.97;40.39;99658.69;5294492;26;20006;-72
2024/04/12 11:42:56;;;;;;;7.22;3.35;;;;;;;20.95;42.30;99667.19;5309478;27;20013;-73
2024/04/12 11:45:25;;;;;;;6.28;3.33;;;;;;;21.22;40.90;99655.94;5286896;26;20421;-73
2024/04/12 11:47:50;;;;;;;5.00;2.85;;;;;;;20.95;40.89;99647.19;5316018;26;20012;-71
2024/04/12 11:50:16;;;;;;;8.48;3.20;;;;;;;21.01;38.85;99632.38;5300128;26;19997;-72
2024/04/12 11:52:41;;;;;;;6.78;3.00;;;;;;;20.94;39.41;99637.31;5278437;26;20414;-73
2024/04/12 11:55:07;;;;;;;6.13;2.85;;;;;;;21.04;40.54;99632.69;5312062;26;20000;-72
2024/04/12 11:57:36;;;;;;;7.47;2.88;;;;;;;21.24;41.48;99643.59;5274606;27;20017;-72
2024/04/12 12:00:09;;;;;;;4.50;2.80;;;;;;;21.24;39.62;99634.56;5286313;26;20001;-72
2024/04/12 12:02:42;;;;;;;5.63;2.83;;;;;;;21.56;40.05;99635.00;5309796;26;19998;-72
2024/04/12 12:05:09;;;;;;;6.43;2.75;;;;;;;21.61;40.95;99626.72;5304165;26;20001;-72
2024/04/12 12:07:35;;;;;;;5.60;2.60;;;;;;;21.66;39.81;99634.94;5342164;26;20079;-72
2024/04/12 12:10:03;;;;;;;9.48;3.10;;;;;;;21.42;39.08;99622.19;5338334;26;20005;-74
2024/04/12 12:12:30;;;;;;;4.80;2.40;;;;;;;21.86;39.92;99634.88;5342725;26;20015;-74
2024/04/12 12:14:56;;;;;;;7.85;2.67;;;;;;;22.00;38.42;99608.47;5340034;26;20472;-72
2024/04/12 12:17:21;;;;;;;6.80;2.90;;;;;;;22.28;39.04;99619.78;5315038;26;20015;-72
2024/04/12 12:19:51;;;;;;;6.22;2.47;;;;;;;22.53;39.27;99622.34;5311131;26;20008;-72
2024/04/12 12:22:18;;;;;;;6.05;2.60;;;;;;;22.44;39.16;99613.91;5309485;26;20019;-73
2024/04/12 12:24:44;;;;;;;4.60;2.13;;;;;;;22.41;37.21;99619.97;5312651;26;20464;-73
2024/04/12 12:27:09;;;;;;;5.88;2.33;;;;;;;22.64;36.38;99624.72;5315053;26;20028;-73
2024/04/12 12:29:35;;;;;;;6.88;2.50;;;;;;;22.42;36.87;99618.88;5313404;26;20070;-74
2024/04/12 12:32:01;;;;;;;8.07;2.30;;;;;;;22.44;36.85;99613.06;5307596;26;20001;-73
2024/04/12 12:34:27;;;;;;;4.97;2.38;;;;;;;22.73;36.94;99610.38;5309719;26;19997;-72
2024/04/12 12:36:53;;;;;;;4.85;2.25;;;;;;;22.86;35.28;99610.53;5312236;26;20055;-72
2024/04/12 12:39:19;;;;;;;5.97;2.20;;;;;;;23.11;34.80;99613.00;5285187;26;20008;-73
2024/04/12 12:41:45;;;;;;;4.57;2.40;;;;;;;23.14;34.90;99593.19;5339866;26;20073;-73
2024/04/12 12:44:17;;;;;;;4.78;1.80;;;;;;;23.46;33.75;99597.22;5314292;26;20031;-73
2024/04/12 12:46:43;;;;;;;4.13;1.83;;;;;;;23.35;34.20;99604.78;5312431;26;20070;-74
2024/04/12 12:49:09;;;;;;;5.53;2.20;;;;;;;23.67;34.46;99601.34;5264010;26;20045;-72
2024/04/12 12:51:38;;;;;;;6.57;2.50;;;;;;;23.78;34.97;99594.63;5276811;26;20077;-72
2024/04/12 12:54:06;;;;;;;5.45;2.22;;;;;;;23.65;33.92;99584.31;5341550;26;20009;-72
2024/04/12 12:56:31;;;;;;;4.07;1.80;;;;;;;23.49;35.68;99580.97;5309190;26;20076;-72
2024/04/12 12:58:59;;;;;;;6.07;2.20;;;;;;;23.20;36.48;99586.50;5332474;26;20013;-72